Time;durP1;ratioP1;P1;durP2;ratioP2;P2;SDS_P1;SDS_P2;PMS_P1;PMS_P2;Temp;Humidity;BMP_temperature;BMP_pressure;BME280_temperature;BME280_humidity;BME280_pressure;Samples;Min_cycle;Max_cycle;Signal;HPM_P1;HPM_P2
2021/06/04 00:00:28;;;;;;;0.40;0.20;;;19.30;99.90;;;;;;5012858;28;20384;-81
2021/06/04 00:02:55;;;;;;;0.40;0.20;;;19.20;99.90;;;;;;5030968;28;20387;-81
2021/06/04 00:05:28;;;;;;;0.40;0.30;;;19.20;99.90;;;;;;5031881;28;20383;-80
2021/06/04 00:07:54;;;;;;;0.40;0.30;;;19.00;99.90;;;;;;5019113;28;20400;-81
2021/06/04 00:10:30;;;;;;;0.40;0.30;;;19.20;99.90;;;;;;5036274;28;20383;-81
2021/06/04 00:13:22;;;;;;;0.40;0.30;;;19.20;99.90;;;;;;5030980;28;20375;-81
2021/06/04 00:15:54;;;;;;;0.40;0.20;;;19.10;99.90;;;;;;5031678;28;20458;-80
2021/06/04 00:18:20;;;;;;;0.40;0.20;;;19.00;99.90;;;;;;5013696;28;20552;-80
2021/06/04 00:20:46;;;;;;;0.40;0.20;;;19.00;99.90;;;;;;5031806;28;20454;-80
2021/06/04 00:23:12;;;;;;;0.40;0.20;;;19.00;99.90;;;;;;5030383;28;20383;-81
2021/06/04 00:25:37;;;;;;;0.40;0.20;;;19.10;99.90;;;;;;5031162;28;20885;-82
2021/06/04 00:28:42;;;;;;;0.40;0.30;;;19.10;99.90;;;;;;5016822;28;20806;-82
2021/06/04 00:31:08;;;;;;;0.40;0.20;;;19.00;99.90;;;;;;5017974;28;21560;-80
2021/06/04 00:33:34;;;;;;;0.40;0.20;;;19.00;99.90;;;;;;5001373;28;20590;-81
2021/06/04 00:36:02;;;;;;;0.40;0.25;;;19.10;99.90;;;;;;5018909;28;20727;-80
2021/06/04 00:38:27;;;;;;;0.40;0.20;;;19.10;99.90;;;;;;5002565;28;20428;-82
2021/06/04 00:40:56;;;;;;;0.40;0.20;;;19.00;99.90;;;;;;5019733;28;20479;-82
2021/06/04 00:43:23;;;;;;;0.40;0.20;;;19.10;99.90;;;;;;5020011;28;20871;-81
2021/06/04 00:45:51;;;;;;;0.40;0.20;;;19.00;99.90;;;;;;5015966;28;20381;-81
2021/06/04 00:48:18;;;;;;;0.40;0.20;;;19.00;99.90;;;;;;5026541;28;20389;-81
2021/06/04 00:50:55;;;;;;;0.40;0.20;;;19.00;99.90;;;;;;5002274;28;20444;-81
2021/06/04 00:53:22;;;;;;;0.40;0.20;;;19.00;99.90;;;;;;5020169;28;20395;-82
2021/06/04 00:55:49;;;;;;;0.40;0.20;;;18.80;99.90;;;;;;5012600;28;20933;-82
2021/06/04 00:58:19;;;;;;;0.40;0.20;;;19.00;99.90;;;;;;5023132;28;20593;-81
2021/06/04 01:00:48;;;;;;;0.40;0.20;;;18.90;99.90;;;;;;5018753;28;20392;-82
2021/06/04 01:03:14;;;;;;;0.40;0.20;;;18.90;99.90;;;;;;5007823;28;20474;-81
2021/06/04 01:05:42;;;;;;;0.40;0.30;;;18.90;99.90;;;;;;5011785;28;20477;-81
2021/06/04 01:08:29;;;;;;;0.40;0.20;;;18.90;99.90;;;;;;5012630;28;20382;-82
2021/06/04 01:11:34;;;;;;;0.40;0.20;;;18.80;99.90;;;;;;5018718;28;20564;-88
2021/06/04 01:14:23;;;;;;;0.40;0.20;;;18.80;99.90;;;;;;4986447;28;20447;-80
2021/06/04 01:16:57;;;;;;;0.40;0.20;;;18.90;99.90;;;;;;5010491;28;20393;-80
2021/06/04 01:19:49;;;;;;;0.40;0.20;;;18.90;99.90;;;;;;4995987;28;20486;-82
2021/06/04 01:22:23;;;;;;;0.40;0.20;;;18.90;99.90;;;;;;5006720;28;20408;-80
2021/06/04 01:24:52;;;;;;;0.40;0.20;;;18.80;99.90;;;;;;5021555;28;20711;-80
2021/06/04 01:27:23;;;;;;;0.40;0.20;;;18.70;99.90;;;;;;5020858;28;20452;-80
2021/06/04 01:29:56;;;;;;;0.40;0.30;;;18.70;99.90;;;;;;5021079;28;20422;-80
2021/06/04 01:32:27;;;;;;;0.40;0.20;;;18.70;99.90;;;;;;5020821;28;20381;-81
2021/06/04 01:34:57;;;;;;;0.40;0.20;;;18.80;99.90;;;;;;5022476;28;20994;-81
2021/06/04 01:37:30;;;;;;;0.40;0.20;;;18.90;99.90;;;;;;5016813;28;20418;-81
2021/06/04 01:40:00;;;;;;;0.40;0.30;;;18.20;99.90;;;;;;5021541;28;20561;-80
2021/06/04 01:42:35;;;;;;;0.40;0.20;;;18.80;99.90;;;;;;5019021;28;20385;-82
2021/06/04 01:45:29;;;;;;;0.40;0.30;;;18.80;99.90;;;;;;5001444;28;20388;-81
2021/06/04 01:48:04;;;;;;;0.40;0.20;;;18.70;99.90;;;;;;5002264;28;20755;-81
2021/06/04 01:50:35;;;;;;;0.40;0.30;;;18.70;99.90;;;;;;5022515;28;20880;-81
2021/06/04 01:53:09;;;;;;;0.40;0.20;;;18.70;99.90;;;;;;5006805;28;20470;-81
2021/06/04 01:55:40;;;;;;;0.40;0.20;;;18.70;99.90;;;;;;4997537;28;20397;-81
2021/06/04 01:58:20;;;;;;;0.40;0.20;;;18.60;99.90;;;;;;5014800;28;20427;-81
2021/06/04 02:00:53;;;;;;;0.40;0.20;;;18.60;99.90;;;;;;5029858;28;20390;-80
2021/06/04 02:03:23;;;;;;;0.40;0.20;;;18.60;99.90;;;;;;5034679;28;20391;-82
2021/06/04 02:05:52;;;;;;;0.40;0.20;;;18.60;99.90;;;;;;5046307;28;20400;-81
2021/06/04 02:08:36;;;;;;;0.40;0.20;;;18.50;99.90;;;;;;5038665;28;20928;-79
2021/06/04 02:11:07;;;;;;;0.40;0.30;;;18.60;99.90;;;;;;5018862;28;20391;-81
2021/06/04 02:13:33;;;;;;;0.40;0.20;;;17.80;99.90;;;;;;5023591;28;20392;-80
2021/06/04 02:16:29;;;;;;;0.40;0.22;;;18.60;99.90;;;;;;5017297;28;20395;-87
2021/06/04 02:19:13;;;;;;;0.40;0.30;;;18.40;99.90;;;;;;5015969;28;20768;-82
2021/06/04 02:21:48;;;;;;;0.40;0.20;;;18.50;99.90;;;;;;5015997;28;20415;-81
2021/06/04 02:24:43;;;;;;;0.40;0.20;;;18.40;99.90;;;;;;5032974;28;20676;-82
2021/06/04 02:27:19;;;;;;;0.40;0.20;;;18.30;99.90;;;;;;5015498;28;20412;-81
2021/06/04 02:29:56;;;;;;;0.40;0.20;;;18.20;99.90;;;;;;5033206;28;20699;-80
2021/06/04 02:32:33;;;;;;;0.40;0.20;;;18.20;99.90;;;;;;5016770;28;20798;-80
2021/06/04 02:35:08;;;;;;;0.40;0.30;;;18.20;99.90;;;;;;5011990;28;20397;-80
2021/06/04 02:37:44;;;;;;;0.40;0.30;;;18.30;99.90;;;;;;5013336;28;20515;-80
2021/06/04 02:40:33;;;;;;;0.40;0.22;;;18.20;99.90;;;;;;5031375;28;20390;-80
2021/06/04 02:43:19;;;;;;;0.40;0.20;;;18.20;99.90;;;;;;5023820;28;20758;-80
2021/06/04 02:45:49;;;;;;;0.40;0.40;;;18.00;99.90;;;;;;4995626;28;20401;-80
2021/06/04 02:48:19;;;;;;;0.40;0.30;;;18.00;99.90;;;;;;5028596;28;20379;-80
2021/06/04 02:50:50;;;;;;;0.40;0.20;;;18.00;99.90;;;;;;5022219;28;20727;-79
2021/06/04 02:53:18;;;;;;;0.40;0.20;;;18.00;99.90;;;;;;4999014;28;20397;-81
2021/06/04 02:56:12;;;;;;;0.40;0.20;;;18.00;99.90;;;;;;5023881;28;20385;-79
2021/06/04 02:58:42;;;;;;;0.40;0.20;;;18.00;99.90;;;;;;5025800;28;20432;-80
2021/06/04 03:01:11;;;;;;;0.40;0.20;;;17.90;99.90;;;;;;5017107;28;20743;-80
2021/06/04 03:03:38;;;;;;;0.40;0.30;;;17.90;99.90;;;;;;4998922;28;20401;-81
2021/06/04 03:06:04;;;;;;;0.40;0.28;;;17.80;99.90;;;;;;5022870;28;20394;-81
2021/06/04 03:08:33;;;;;;;0.40;0.22;;;17.80;99.90;;;;;;5014933;28;20395;-80
2021/06/04 03:11:01;;;;;;;0.40;0.20;;;17.80;99.90;;;;;;5032691;28;20390;-80
2021/06/04 03:13:31;;;;;;;0.40;0.30;;;17.80;99.90;;;;;;5032806;28;20403;-80
2021/06/04 03:16:01;;;;;;;0.40;0.20;;;17.70;99.90;;;;;;5032756;28;20410;-81
2021/06/04 03:18:35;;;;;;;0.40;0.20;;;17.80;99.90;;;;;;5014253;28;20862;-80
2021/06/04 03:21:02;;;;;;;0.40;0.20;;;17.80;99.90;;;;;;5032521;28;20383;-80
2021/06/04 03:23:37;;;;;;;0.40;0.20;;;17.80;99.90;;;;;;5032307;28;20386;-80
2021/06/04 03:26:11;;;;;;;0.40;0.20;;;17.80;99.90;;;;;;5014622;28;20388;-89
2021/06/04 03:28:38;;;;;;;0.40;0.25;;;17.80;99.90;;;;;;5032724;28;20441;-80
2021/06/04 03:31:07;;;;;;;0.40;0.20;;;17.70;99.90;;;;;;5031946;28;20437;-82
2021/06/04 03:33:36;;;;;;;0.40;0.20;;;17.80;99.90;;;;;;5032015;28;20387;-81
2021/06/04 03:36:09;;;;;;;0.40;0.20;;;17.70;99.90;;;;;;5032292;28;20738;-81
2021/06/04 03:38:36;;;;;;;0.40;0.20;;;17.70;99.90;;;;;;5032394;28;20908;-81
2021/06/04 03:41:03;;;;;;;0.40;0.20;;;17.70;99.90;;;;;;5032007;28;20379;-81
2021/06/04 03:43:29;;;;;;;0.40;0.30;;;17.70;99.90;;;;;;5032579;28;20729;-81
2021/06/04 03:45:55;;;;;;;0.40;0.20;;;17.70;99.90;;;;;;5032355;28;20475;-81
2021/06/04 03:48:25;;;;;;;0.40;0.30;;;17.70;99.90;;;;;;5013711;28;20394;-81
2021/06/04 03:50:54;;;;;;;0.40;0.20;;;17.70;99.90;;;;;;5031738;28;20387;-80
2021/06/04 03:53:20;;;;;;;0.40;0.30;;;17.70;99.90;;;;;;5031467;28;20769;-81
2021/06/04 03:55:46;;;;;;;0.40;0.20;;;17.70;99.90;;;;;;5031777;28;20405;-81
2021/06/04 03:58:13;;;;;;;0.40;0.20;;;17.60;99.90;;;;;;5013733;28;20412;-81
2021/06/04 04:00:49;;;;;;;0.40;0.30;;;17.70;99.90;;;;;;5031816;28;20387;-81
2021/06/04 04:03:17;;;;;;;0.40;0.20;;;17.60;99.90;;;;;;5031531;28;20387;-82
2021/06/04 04:05:43;;;;;;;0.40;0.20;;;17.70;99.90;;;;;;5032037;28;20403;-81
2021/06/04 04:08:11;;;;;;;0.40;0.30;;;17.60;99.90;;;;;;5013728;28;20873;-81
2021/06/04 04:10:37;;;;;;;0.40;0.20;;;17.60;99.90;;;;;;5031120;28;20375;-81
2021/06/04 04:13:04;;;;;;;0.40;0.20;;;17.60;99.90;;;;;;5033786;28;20374;-81
2021/06/04 04:15:29;;;;;;;0.40;0.30;;;17.60;99.90;;;;;;5032447;28;20401;-82
2021/06/04 04:18:00;;;;;;;0.40;0.20;;;17.60;99.90;;;;;;5031816;28;20769;-81
2021/06/04 04:20:48;;;;;;;0.40;0.20;;;17.60;99.90;;;;;;5013595;28;20394;-81
2021/06/04 04:23:21;;;;;;;0.40;0.30;;;17.50;99.90;;;;;;5013454;28;20753;-81
2021/06/04 04:25:46;;;;;;;0.40;0.20;;;17.60;99.90;;;;;;5031739;28;20385;-81
2021/06/04 04:28:18;;;;;;;0.40;0.30;;;17.60;99.90;;;;;;5031360;28;20878;-81
2021/06/04 04:30:44;;;;;;;0.40;0.30;;;17.60;99.90;;;;;;5014039;28;20873;-81
2021/06/04 04:33:10;;;;;;;0.40;0.20;;;17.70;99.90;;;;;;5013203;28;20438;-82
2021/06/04 04:35:37;;;;;;;0.40;0.20;;;17.70;99.90;;;;;;5031538;28;20391;-81
2021/06/04 04:38:05;;;;;;;0.40;0.30;;;17.70;99.90;;;;;;5013490;28;20489;-81
2021/06/04 04:40:34;;;;;;;0.40;0.20;;;17.80;99.90;;;;;;5031005;28;20411;-81
2021/06/04 04:43:01;;;;;;;0.40;0.20;;;17.80;99.90;;;;;;5013730;28;20884;-81
2021/06/04 04:45:27;;;;;;;0.40;0.20;;;17.80;99.90;;;;;;5013189;28;20402;-81
2021/06/04 04:47:53;;;;;;;0.40;0.20;;;17.80;99.90;;;;;;5031504;28;20387;-81
2021/06/04 04:50:21;;;;;;;0.40;0.30;;;17.80;99.90;;;;;;5030667;28;20386;-81
2021/06/04 04:52:47;;;;;;;0.40;0.20;;;17.80;99.90;;;;;;5031584;28;20402;-81
2021/06/04 04:55:14;;;;;;;0.40;0.20;;;17.80;99.90;;;;;;5013125;28;20398;-81
2021/06/04 04:57:39;;;;;;;0.40;0.20;;;17.90;99.90;;;;;;5013614;28;20438;-81
2021/06/04 05:00:08;;;;;;;0.40;0.20;;;17.90;99.90;;;;;;5030685;28;20450;-81
2021/06/04 05:02:34;;;;;;;0.40;0.30;;;18.10;99.90;;;;;;4995280;28;20393;-80
2021/06/04 05:04:59;;;;;;;0.40;0.30;;;18.10;99.90;;;;;;5009856;28;20563;-80
2021/06/04 05:07:25;;;;;;;0.40;0.30;;;18.10;99.90;;;;;;5010987;28;20403;-81
2021/06/04 05:09:51;;;;;;;0.40;0.30;;;18.20;99.90;;;;;;5011563;28;20389;-80
2021/06/04 05:12:17;;;;;;;0.40;0.20;;;18.30;99.90;;;;;;4993045;28;20864;-81
2021/06/04 05:14:43;;;;;;;0.40;0.30;;;18.30;99.90;;;;;;5011328;28;20873;-79
2021/06/04 05:17:08;;;;;;;0.40;0.30;;;18.40;99.90;;;;;;5011501;28;20384;-77
2021/06/04 05:19:34;;;;;;;0.40;0.30;;;18.50;99.90;;;;;;5010952;28;20532;-79
2021/06/04 05:22:00;;;;;;;0.40;0.30;;;18.60;99.90;;;;;;4997006;28;20396;-78
2021/06/04 05:24:26;;;;;;;0.40;0.20;;;18.70;99.90;;;;;;5015018;28;20384;-78
2021/06/04 05:26:52;;;;;;;0.40;0.30;;;18.70;99.90;;;;;;5015355;28;20415;-78
2021/06/04 05:29:18;;;;;;;0.40;0.30;;;18.80;99.90;;;;;;5014894;28;20399;-78
2021/06/04 05:31:45;;;;;;;0.40;0.30;;;18.80;99.90;;;;;;5015175;28;20380;-76
2021/06/04 05:34:11;;;;;;;0.40;0.30;;;18.90;99.90;;;;;;5014398;28;20755;-76
2021/06/04 05:36:38;;;;;;;0.40;0.20;;;18.90;99.90;;;;;;5014678;28;20484;-75
2021/06/04 05:39:12;;;;;;;0.40;0.20;;;18.90;99.90;;;;;;5014736;28;20496;-75
2021/06/04 05:41:41;;;;;;;0.40;0.20;;;18.90;99.90;;;;;;5015159;28;20389;-75
2021/06/04 05:44:08;;;;;;;0.40;0.20;;;19.00;99.90;;;;;;5016233;28;20477;-75
2021/06/04 05:46:34;;;;;;;0.40;0.20;;;19.00;99.90;;;;;;4996459;28;20404;-75
2021/06/04 05:49:00;;;;;;;0.40;0.30;;;19.00;99.90;;;;;;5014640;28;20391;-76
2021/06/04 05:51:29;;;;;;;0.40;0.30;;;19.10;99.90;;;;;;5013492;28;20512;-74
2021/06/04 05:53:56;;;;;;;0.40;0.30;;;19.10;99.90;;;;;;5014505;28;20388;-75
2021/06/04 05:56:23;;;;;;;0.40;0.30;;;19.20;99.90;;;;;;5013939;28;20412;-74
2021/06/04 05:58:50;;;;;;;0.40;0.30;;;19.20;99.90;;;;;;5014424;28;20514;-74
2021/06/04 06:01:22;;;;;;;0.40;0.30;;;19.30;99.90;;;;;;5013749;28;20387;-75
2021/06/04 06:03:48;;;;;;;0.40;0.22;;;19.50;99.90;;;;;;5014360;28;20388;-75
2021/06/04 06:06:14;;;;;;;0.40;0.30;;;19.50;99.90;;;;;;5013634;28;20411;-76
2021/06/04 06:08:42;;;;;;;0.40;0.20;;;19.50;99.90;;;;;;5013048;28;20389;-75
2021/06/04 06:11:10;;;;;;;0.40;0.20;;;19.50;99.90;;;;;;5013918;28;20712;-74
2021/06/04 06:13:36;;;;;;;0.40;0.20;;;19.70;99.90;;;;;;5013505;28;20794;-75
2021/06/04 06:16:02;;;;;;;0.40;0.30;;;19.70;99.90;;;;;;5012858;28;20427;-76
2021/06/04 06:18:28;;;;;;;0.40;0.20;;;19.70;99.90;;;;;;5012237;28;20502;-74
2021/06/04 06:20:54;;;;;;;0.40;0.20;;;19.70;99.90;;;;;;5014292;28;20492;-75
2021/06/04 06:23:25;;;;;;;0.40;0.20;;;19.80;99.90;;;;;;5013587;28;20385;-75
2021/06/04 06:25:55;;;;;;;0.40;0.30;;;19.90;99.90;;;;;;5014166;28;20392;-75
2021/06/04 06:28:23;;;;;;;0.40;0.30;;;20.00;99.90;;;;;;5013368;28;20385;-75
2021/06/04 06:30:49;;;;;;;0.40;0.20;;;20.10;99.90;;;;;;5013861;28;20747;-74
2021/06/04 06:33:15;;;;;;;0.40;0.20;;;20.30;99.90;;;;;;5012149;28;20384;-76
2021/06/04 06:35:46;;;;;;;0.40;0.20;;;20.50;99.90;;;;;;5013727;28;20392;-75
2021/06/04 06:38:12;;;;;;;0.40;0.30;;;20.60;99.90;;;;;;5012415;28;20456;-75
2021/06/04 06:40:39;;;;;;;0.40;0.20;;;20.70;99.90;;;;;;5011681;28;20435;-75
2021/06/04 06:43:07;;;;;;;0.40;0.25;;;20.80;99.90;;;;;;5013787;28;20385;-75
2021/06/04 06:45:32;;;;;;;0.40;0.30;;;20.90;99.90;;;;;;5012810;28;20412;-75
2021/06/04 06:47:58;;;;;;;0.40;0.20;;;21.10;99.90;;;;;;5013690;28;20783;-75
2021/06/04 06:50:28;;;;;;;0.40;0.30;;;21.30;99.90;;;;;;5011799;28;20397;-75
2021/06/04 06:52:54;;;;;;;0.40;0.20;;;21.30;99.90;;;;;;5032729;28;20431;-75
2021/06/04 06:55:20;;;;;;;0.40;0.30;;;21.40;99.90;;;;;;5030169;28;20445;-76
2021/06/04 06:57:46;;;;;;;0.40;0.20;;;21.50;99.90;;;;;;5012733;28;20419;-75
2021/06/04 07:00:20;;;;;;;0.40;0.30;;;21.50;99.90;;;;;;5032891;28;20379;-75
2021/06/04 07:02:46;;;;;;;0.40;0.20;;;21.70;99.90;;;;;;5000836;28;20454;-76
2021/06/04 07:05:13;;;;;;;0.40;0.30;;;21.80;99.90;;;;;;5009953;28;20494;-76
2021/06/04 07:07:39;;;;;;;0.40;0.20;;;21.90;99.90;;;;;;5032333;28;20478;-75
2021/06/04 07:10:07;;;;;;;0.40;0.20;;;22.00;99.90;;;;;;5034399;28;20771;-75
2021/06/04 07:12:33;;;;;;;0.40;0.20;;;22.10;99.90;;;;;;5033640;28;20426;-75
2021/06/04 07:14:59;;;;;;;0.40;0.30;;;22.20;99.90;;;;;;5033875;28;20414;-76
2021/06/04 07:17:26;;;;;;;0.40;0.20;;;22.40;99.90;;;;;;5032158;28;20919;-75
2021/06/04 07:19:52;;;;;;;0.40;0.30;;;22.50;99.90;;;;;;5032721;28;20427;-75
2021/06/04 07:22:17;;;;;;;0.40;0.30;;;22.50;99.90;;;;;;4994571;28;20424;-78
2021/06/04 07:24:43;;;;;;;0.40;0.20;;;22.60;99.90;;;;;;4995465;28;20920;-76
2021/06/04 07:27:09;;;;;;;0.40;0.30;;;22.60;99.90;;;;;;4995239;28;20444;-78
2021/06/04 07:29:34;;;;;;;0.40;0.30;;;22.70;97.60;;;;;;4994545;28;20384;-76
2021/06/04 07:32:00;;;;;;;0.40;0.30;;;22.90;97.10;;;;;;4995254;28;20389;-75
2021/06/04 07:34:28;;;;;;;0.40;0.30;;;23.10;95.60;;;;;;5012140;28;20871;-74
2021/06/04 07:36:55;;;;;;;0.40;0.30;;;23.00;95.40;;;;;;5012465;28;20385;-75
2021/06/04 07:39:32;;;;;;;0.40;0.30;;;23.10;94.30;;;;;;4997688;28;20939;-77
2021/06/04 07:41:59;;;;;;;0.40;0.30;;;23.10;95.70;;;;;;5022132;28;20389;-76
2021/06/04 07:44:26;;;;;;;0.40;0.30;;;23.10;94.90;;;;;;4995108;28;20396;-79
2021/06/04 07:46:54;;;;;;;0.40;0.30;;;23.20;95.30;;;;;;5012168;28;20391;-74
2021/06/04 07:49:20;;;;;;;0.40;0.30;;;23.30;92.30;;;;;;5011731;28;20381;-77
2021/06/04 07:51:49;;;;;;;0.40;0.30;;;23.30;92.50;;;;;;5011961;28;20409;-75
2021/06/04 07:54:18;;;;;;;0.40;0.20;;;23.30;92.10;;;;;;5012338;28;20477;-74
2021/06/04 07:56:45;;;;;;;0.40;0.30;;;23.40;91.00;;;;;;5011653;28;20381;-76
2021/06/04 07:59:11;;;;;;;0.40;0.20;;;23.30;92.70;;;;;;5011147;28;20412;-75
2021/06/04 08:01:40;;;;;;;0.40;0.30;;;23.20;92.60;;;;;;5021283;28;20786;-75
2021/06/04 08:04:05;;;;;;;0.40;0.30;;;23.30;91.20;;;;;;5031140;28;20456;-75
2021/06/04 08:06:31;;;;;;;0.40;0.25;;;23.30;91.00;;;;;;5030482;28;20395;-74
2021/06/04 08:08:57;;;;;;;0.40;0.30;;;23.40;91.00;;;;;;5025385;28;20955;-76
2021/06/04 08:11:27;;;;;;;0.40;0.30;;;23.30;91.10;;;;;;5019547;28;20426;-75
2021/06/04 08:13:58;;;;;;;0.40;0.20;;;23.30;91.30;;;;;;5020918;28;20482;-78
2021/06/04 08:16:25;;;;;;;0.40;0.20;;;23.20;91.80;;;;;;5021466;28;20396;-75
2021/06/04 08:18:51;;;;;;;0.40;0.30;;;23.40;90.80;;;;;;5006652;28;20453;-75
2021/06/04 08:21:26;;;;;;;0.40;0.20;;;23.70;90.90;;;;;;4994256;28;20471;-74
2021/06/04 08:23:52;;;;;;;0.40;0.30;;;24.00;89.00;;;;;;4994291;28;20392;-77
2021/06/04 08:26:24;;;;;;;0.40;0.30;;;24.10;88.10;;;;;;5011960;28;20760;-77
2021/06/04 08:28:51;;;;;;;0.40;0.30;;;24.30;87.60;;;;;;5011291;28;20459;-77
2021/06/04 08:31:19;;;;;;;0.40;0.30;;;24.40;86.40;;;;;;5016746;28;20387;-76
2021/06/04 08:33:46;;;;;;;0.50;0.30;;;24.30;87.20;;;;;;5011273;28;20423;-78
2021/06/04 08:36:16;;;;;;;0.40;0.20;;;24.20;87.90;;;;;;5011509;28;20787;-76
2021/06/04 08:38:42;;;;;;;0.40;0.30;;;24.20;88.30;;;;;;5010924;28;21139;-80
2021/06/04 08:41:36;;;;;;;0.40;0.30;;;24.00;86.80;;;;;;5011640;28;20885;-76
2021/06/04 08:44:14;;;;;;;0.40;0.20;;;24.00;86.90;;;;;;5013694;28;20494;-77
2021/06/04 08:46:45;;;;;;;0.40;0.30;;;24.00;86.20;;;;;;5012398;28;20391;-78
2021/06/04 08:49:28;;;;;;;0.40;0.30;;;24.10;85.80;;;;;;5024358;28;20385;-75
2021/06/04 08:52:15;;;;;;;0.40;0.30;;;24.30;86.30;;;;;;5024502;28;20491;-75
2021/06/04 08:54:53;;;;;;;0.40;0.30;;;24.30;85.60;;;;;;5017475;28;20431;-75
2021/06/04 08:57:48;;;;;;;0.40;0.20;;;24.40;85.60;;;;;;5027600;28;20397;-74
2021/06/04 09:00:37;;;;;;;0.40;0.30;;;24.40;85.30;;;;;;5026909;28;20483;-76
2021/06/04 09:03:20;;;;;;;0.40;0.20;;;24.30;85.40;;;;;;5028129;28;20375;-75
2021/06/04 09:05:53;;;;;;;0.40;0.30;;;24.20;86.00;;;;;;5027903;28;20764;-78
2021/06/04 09:08:26;;;;;;;0.40;0.20;;;24.10;86.60;;;;;;5028100;28;20393;-79
2021/06/04 09:11:17;;;;;;;0.40;0.30;;;24.30;87.30;;;;;;5030672;28;20387;-74
2021/06/04 09:13:43;;;;;;;0.40;0.20;;;24.50;87.10;;;;;;5011268;28;20384;-81
2021/06/04 09:16:29;;;;;;;0.40;0.30;;;24.50;87.00;;;;;;5008660;28;20407;-75
2021/06/04 09:18:57;;;;;;;0.40;0.20;;;24.50;86.50;;;;;;5028578;28;20413;-76
2021/06/04 09:21:36;;;;;;;0.40;0.25;;;24.50;86.60;;;;;;5011163;28;20396;-77
2021/06/04 09:24:07;;;;;;;0.40;0.30;;;24.40;87.10;;;;;;5028038;28;20391;-75
2021/06/04 09:26:33;;;;;;;0.40;0.20;;;24.40;85.90;;;;;;5027693;28;20409;-77
2021/06/04 09:29:01;;;;;;;0.40;0.30;;;24.30;86.50;;;;;;5027496;28;20383;-75
2021/06/04 09:31:39;;;;;;;0.40;0.30;;;24.30;86.50;;;;;;5001732;28;20462;-78
2021/06/04 09:34:17;;;;;;;0.40;0.30;;;24.30;87.20;;;;;;5007819;28;20459;-76
2021/06/04 09:36:53;;;;;;;0.40;0.30;;;24.30;87.90;;;;;;5024929;28;20393;-76
2021/06/04 09:39:30;;;;;;;0.40;0.20;;;24.50;86.90;;;;;;5035970;28;20956;-77
2021/06/04 09:42:15;;;;;;;0.40;0.20;;;24.40;88.70;;;;;;5019586;28;20800;-77
2021/06/04 09:44:53;;;;;;;0.40;0.30;;;24.40;87.60;;;;;;5019222;28;20459;-76
2021/06/04 09:47:59;;;;;;;0.40;0.20;;;24.20;88.60;;;;;;5019401;28;20406;-76
2021/06/04 09:50:39;;;;;;;0.40;0.30;;;24.30;88.60;;;;;;5008951;28;20490;-76
2021/06/04 09:53:22;;;;;;;0.50;0.40;;;24.30;90.00;;;;;;5029239;28;20489;-74
2021/06/04 09:56:09;;;;;;;0.40;0.30;;;24.40;89.50;;;;;;5025578;28;20412;-76
2021/06/04 09:58:47;;;;;;;0.40;0.30;;;24.40;90.50;;;;;;5027129;28;20444;-75
2021/06/04 10:01:15;;;;;;;0.40;0.30;;;24.50;87.50;;;;;;5023910;28;20476;-75
2021/06/04 10:03:41;;;;;;;0.40;0.20;;;24.70;86.70;;;;;;5027060;28;20424;-75
2021/06/04 10:06:11;;;;;;;0.40;0.20;;;25.10;85.50;;;;;;5027737;28;20454;-74
2021/06/04 10:08:57;;;;;;;0.40;0.20;;;25.20;82.40;;;;;;4995879;28;20879;-76
2021/06/04 10:11:45;;;;;;;0.40;0.20;;;25.30;81.50;;;;;;5021962;28;20390;-81
2021/06/04 10:14:19;;;;;;;0.40;0.30;;;25.30;80.10;;;;;;4983444;28;20408;-77
2021/06/04 10:19:28;;;;;;;0.40;0.20;;;25.40;79.70;;;;;;5021549;28;20477;-77
2021/06/04 10:22:09;;;;;;;0.40;0.22;;;25.50;78.70;;;;;;5022364;28;20712;-77
2021/06/04 10:24:41;;;;;;;0.50;0.30;;;25.80;79.20;;;;;;5021144;28;20387;-80
2021/06/04 10:27:18;;;;;;;0.40;0.20;;;26.00;78.40;;;;;;5006425;28;20391;-77
2021/06/04 10:30:10;;;;;;;0.40;0.20;;;26.00;78.30;;;;;;5025453;28;20387;-77
2021/06/04 10:32:43;;;;;;;0.40;0.20;;;26.00;77.20;;;;;;5001720;28;20451;-81
2021/06/04 10:35:20;;;;;;;0.40;0.20;;;26.00;79.00;;;;;;5016727;28;20400;-78
2021/06/04 10:38:13;;;;;;;0.40;0.30;;;25.90;79.30;;;;;;5024605;28;20415;-76
2021/06/04 10:40:49;;;;;;;0.40;0.22;;;25.80;77.70;;;;;;5021686;28;20379;-78
2021/06/04 10:43:45;;;;;;;0.40;0.20;;;25.80;76.90;;;;;;5023080;28;20395;-75
2021/06/04 10:46:16;;;;;;;0.40;0.20;;;25.80;77.40;;;;;;5022983;28;20395;-77
2021/06/04 10:49:00;;;;;;;0.40;0.20;;;25.80;76.90;;;;;;5011191;28;20490;-77
2021/06/04 10:51:49;;;;;;;0.40;0.20;;;25.60;77.80;;;;;;5012798;28;20418;-76
2021/06/04 10:54:36;;;;;;;0.40;0.30;;;25.50;80.10;;;;;;5003974;28;20399;-77
2021/06/04 10:57:10;;;;;;;0.40;0.20;;;25.40;80.00;;;;;;5012884;28;20399;-79
2021/06/04 10:59:51;;;;;;;0.40;0.20;;;25.40;80.60;;;;;;5023547;28;20502;-78
2021/06/04 11:02:41;;;;;;;0.40;0.20;;;25.40;79.70;;;;;;5011803;28;20407;-75
2021/06/04 11:05:16;;;;;;;0.40;0.30;;;25.30;80.90;;;;;;5025611;28;20435;-76
2021/06/04 11:07:58;;;;;;;0.40;0.30;;;25.30;82.00;;;;;;5021396;28;20479;-76
2021/06/04 11:10:33;;;;;;;0.40;0.30;;;25.30;81.30;;;;;;5025394;28;20459;-75
2021/06/04 11:13:31;;;;;;;0.40;0.30;;;25.20;80.00;;;;;;5022091;28;20398;-74
2021/06/04 11:15:59;;;;;;;0.40;0.20;;;25.20;79.90;;;;;;5022408;28;20387;-75
2021/06/04 11:18:46;;;;;;;0.40;0.30;;;25.00;80.60;;;;;;5010903;28;20427;-77
2021/06/04 11:21:37;;;;;;;0.40;0.30;;;25.20;81.50;;;;;;5014164;28;20385;-75
2021/06/04 11:24:10;;;;;;;0.40;0.20;;;25.20;81.20;;;;;;5015948;28;20810;-75
2021/06/04 11:26:39;;;;;;;0.40;0.20;;;25.30;80.60;;;;;;5021730;28;20395;-75
2021/06/04 11:29:15;;;;;;;0.40;0.30;;;25.20;80.80;;;;;;5021858;28;20435;-77
2021/06/04 11:32:00;;;;;;;0.40;0.20;;;25.20;81.30;;;;;;5023311;28;20519;-74
2021/06/04 11:34:48;;;;;;;0.40;0.30;;;25.20;81.60;;;;;;5024740;28;20854;-79
2021/06/04 11:37:39;;;;;;;0.40;0.20;;;25.30;80.20;;;;;;5017991;28;20397;-75
2021/06/04 11:40:10;;;;;;;0.40;0.30;;;25.00;81.20;;;;;;5023945;28;20389;-76
2021/06/04 11:43:22;;;;;;;0.40;0.30;;;25.00;82.40;;;;;;5021384;28;20409;-75
2021/06/04 11:46:08;;;;;;;0.40;0.20;;;25.00;81.10;;;;;;4993133;28;20452;-76
2021/06/04 11:48:37;;;;;;;0.40;0.20;;;25.00;82.60;;;;;;5009619;28;20417;-78
2021/06/04 11:51:18;;;;;;;0.40;0.30;;;25.20;80.80;;;;;;5022341;28;20542;-76
2021/06/04 11:53:56;;;;;;;0.40;0.30;;;25.20;81.10;;;;;;5026550;28;20388;-77
2021/06/04 11:56:43;;;;;;;0.40;0.30;;;25.40;78.40;;;;;;5026382;28;20444;-77
2021/06/04 11:59:34;;;;;;;0.40;0.30;;;25.40;79.90;;;;;;5022925;28;20408;-77
2021/06/04 12:02:03;;;;;;;0.40;0.30;;;25.40;82.30;;;;;;5022962;28;20379;-78
2021/06/04 12:04:28;;;;;;;0.40;0.30;;;25.70;79.20;;;;;;5019476;28;20395;-76
2021/06/04 12:07:04;;;;;;;0.40;0.30;;;25.50;80.00;;;;;;5011613;28;20398;-75
2021/06/04 12:09:33;;;;;;;0.40;0.20;;;26.00;75.60;;;;;;5012606;28;20426;-80
2021/06/04 12:12:17;;;;;;;0.40;0.20;;;26.10;73.90;;;;;;5020039;28;20455;-77
2021/06/04 12:15:02;;;;;;;0.40;0.30;;;26.30;74.30;;;;;;5022794;28;20451;-75
2021/06/04 12:17:40;;;;;;;0.40;0.20;;;26.50;73.50;;;;;;5024334;28;20389;-77
2021/06/04 12:20:28;;;;;;;0.40;0.20;;;26.70;72.80;;;;;;5024142;28;20383;-74
2021/06/04 12:22:57;;;;;;;0.40;0.30;;;26.90;72.40;;;;;;5011799;28;20869;-75
2021/06/04 12:25:56;;;;;;;0.40;0.30;;;26.80;71.60;;;;;;5019948;28;20715;-76
2021/06/04 12:28:22;;;;;;;0.50;0.30;;;26.70;72.80;;;;;;5012769;28;20402;-78
2021/06/04 12:30:55;;;;;;;0.40;0.30;;;26.40;70.20;;;;;;5010624;28;20402;-77
2021/06/04 12:33:43;;;;;;;0.40;0.30;;;26.20;74.50;;;;;;5023609;28;20883;-79
2021/06/04 12:36:33;;;;;;;0.40;0.30;;;26.30;73.30;;;;;;5018583;28;20416;-79
2021/06/04 12:39:20;;;;;;;0.40;0.20;;;26.30;71.70;;;;;;5021548;28;20887;-81
2021/06/04 12:42:01;;;;;;;0.40;0.20;;;26.20;72.60;;;;;;5008211;28;20422;-80
2021/06/04 12:44:27;;;;;;;0.50;0.30;;;26.10;73.30;;;;;;5031546;28;20828;-83
2021/06/04 12:46:54;;;;;;;0.50;0.30;;;26.30;73.70;;;;;;5031307;28;20383;-80
2021/06/04 12:49:20;;;;;;;0.45;0.30;;;25.90;75.70;;;;;;5019416;28;20399;-81
2021/06/04 12:51:47;;;;;;;0.40;0.20;;;26.00;73.90;;;;;;5020634;28;20410;-79
2021/06/04 12:54:22;;;;;;;0.40;0.30;;;26.30;73.80;;;;;;5019528;28;20400;-81
2021/06/04 12:56:55;;;;;;;0.40;0.20;;;26.10;72.90;;;;;;5031029;28;20383;-81
2021/06/04 12:59:23;;;;;;;0.40;0.30;;;26.20;70.40;;;;;;5031074;28;20450;-80
2021/06/04 13:02:05;;;;;;;0.40;0.30;;;26.20;71.30;;;;;;5030585;28;20885;-82
2021/06/04 13:04:37;;;;;;;0.40;0.20;;;26.10;73.90;;;;;;5012966;28;20765;-82
2021/06/04 13:07:12;;;;;;;0.40;0.30;;;26.00;73.90;;;;;;5030861;28;20773;-82
2021/06/04 13:09:43;;;;;;;0.40;0.30;;;25.80;77.30;;;;;;5012591;28;20395;-81
2021/06/04 13:12:21;;;;;;;0.40;0.20;;;25.80;72.80;;;;;;5012708;28;20398;-79
2021/06/04 13:14:49;;;;;;;0.50;0.20;;;25.90;70.70;;;;;;5011952;28;20407;-81
2021/06/04 13:17:31;;;;;;;0.40;0.28;;;25.70;73.30;;;;;;5030411;28;20371;-81
2021/06/04 13:20:13;;;;;;;0.40;0.20;;;25.90;77.80;;;;;;5011963;28;20457;-81